createdAt,value
2023-03-01T00:01:47.352Z,17.77
2023-03-01T00:04:15.256Z,21.07
2023-03-01T00:06:47.502Z,21.67
2023-03-01T00:09:15.851Z,18.53
2023-03-01T00:11:43.738Z,18.53
2023-03-01T00:14:11.674Z,21.57
2023-03-01T00:16:41.361Z,19.73
2023-03-01T00:19:11.812Z,19.70
2023-03-01T00:21:39.902Z,18.67
2023-03-01T00:24:10.242Z,21.00
2023-03-01T00:26:38.307Z,21.87
2023-03-01T00:29:06.648Z,21.37
2023-03-01T00:31:35.219Z,18.37
2023-03-01T00:34:05.454Z,20.93
2023-03-01T00:36:35.895Z,19.40
2023-03-01T00:39:05.975Z,20.60
2023-03-01T00:41:36.011Z,23.40
2023-03-01T00:44:04.090Z,19.87
2023-03-01T00:46:32.628Z,22.10
2023-03-01T00:49:03.069Z,20.23
2023-03-01T00:51:31.561Z,22.20
2023-03-01T00:54:01.268Z,19.63
2023-03-01T00:56:29.721Z,19.67
2023-03-01T00:58:59.178Z,20.57
2023-03-01T01:01:31.576Z,20.57
2023-03-01T01:04:02.035Z,19.50
2023-03-01T01:06:31.827Z,19.77
2023-03-01T01:09:00.343Z,21.60
2023-03-01T01:11:30.651Z,21.47
2023-03-01T01:14:00.857Z,18.83
2023-03-01T01:16:30.494Z,20.43
2023-03-01T01:18:58.992Z,20.07
2023-03-01T01:21:28.277Z,19.80
2023-03-01T01:23:56.181Z,19.07
2023-03-01T01:26:26.080Z,20.17
2023-03-01T01:28:54.855Z,20.10
2023-03-01T01:31:25.234Z,21.10
2023-03-01T01:33:53.572Z,20.70
2023-03-01T01:36:21.888Z,19.90
2023-03-01T01:38:52.061Z,20.20
2023-03-01T01:41:21.333Z,21.17
2023-03-01T01:43:50.874Z,19.97
2023-03-01T01:46:29.797Z,20.17
2023-03-01T01:49:02.553Z,20.67
2023-03-01T01:51:39.718Z,19.40
2023-03-01T01:54:14.831Z,18.87
2023-03-01T01:56:46.610Z,20.40
2023-03-01T01:59:14.761Z,20.37
2023-03-01T02:01:45.591Z,18.50
2023-03-01T02:04:13.622Z,20.53
2023-03-01T02:06:48.259Z,19.33
2023-03-01T02:09:18.665Z,20.67
2023-03-01T02:11:46.693Z,20.90
2023-03-01T02:14:16.684Z,20.37
2023-03-01T02:16:46.312Z,18.60
2023-03-01T02:19:28.747Z,21.00
2023-03-01T02:22:03.661Z,22.20
2023-03-01T02:24:38.591Z,19.77
2023-03-01T02:27:08.263Z,18.43
2023-03-01T02:29:39.830Z,19.73
2023-03-01T02:32:07.750Z,19.17
2023-03-01T02:34:35.800Z,21.53
2023-03-01T02:37:09.770Z,18.77
2023-03-01T02:39:43.230Z,20.03
2023-03-01T02:42:15.054Z,20.33
2023-03-01T02:44:44.459Z,19.97
2023-03-01T02:47:12.445Z,17.67
2023-03-01T02:49:40.320Z,18.50
2023-03-01T02:52:23.533Z,19.50
2023-03-01T02:54:57.001Z,23.17
2023-03-01T02:57:28.447Z,19.23
2023-03-01T02:59:59.527Z,19.40
2023-03-01T03:02:37.934Z,20.33
2023-03-01T03:05:09.695Z,22.07
2023-03-01T03:07:40.276Z,20.20
2023-03-01T03:10:12.292Z,18.57
2023-03-01T03:12:40.630Z,19.93
2023-03-01T03:15:14.019Z,19.90
2023-03-01T03:17:46.006Z,19.33
2023-03-01T03:20:20.032Z,20.17
2023-03-01T03:22:50.115Z,21.47
2023-03-01T03:25:18.862Z,18.07
2023-03-01T03:27:47.859Z,19.37
2023-03-01T03:30:20.848Z,19.73
2023-03-01T03:32:53.373Z,21.10
2023-03-01T03:35:23.309Z,21.63
2023-03-01T03:38:07.389Z,20.37
2023-03-01T03:40:36.472Z,20.53
2023-03-01T03:43:04.950Z,21.07
2023-03-01T03:45:36.158Z,19.07
2023-03-01T03:48:06.659Z,19.97
2023-03-01T03:50:35.096Z,19.83
2023-03-01T03:53:03.591Z,22.07
2023-03-01T03:55:31.914Z,17.93
2023-03-01T03:58:03.177Z,20.37
2023-03-01T04:00:31.396Z,18.00
2023-03-01T04:03:01.759Z,19.70
2023-03-01T04:05:29.992Z,20.63
2023-03-01T04:08:08.265Z,20.90
2023-03-01T04:10:39.295Z,24.07
2023-03-01T04:13:08.103Z,25.27
2023-03-01T04:15:36.778Z,23.10
2023-03-01T04:18:07.020Z,21.53
2023-03-01T04:20:37.255Z,21.93
2023-03-01T04:23:14.223Z,20.37
2023-03-01T04:25:43.651Z,21.03
2023-03-01T04:28:12.023Z,21.10
2023-03-01T04:30:43.464Z,21.40
2023-03-01T04:33:13.363Z,20.57
2023-03-01T04:35:41.522Z,21.13
2023-03-01T04:38:12.664Z,20.27
2023-03-01T04:40:43.518Z,20.37
2023-03-01T04:43:12.563Z,21.63
2023-03-01T04:45:40.474Z,20.13
2023-03-01T04:48:08.872Z,23.07
2023-03-01T04:50:38.215Z,20.37
2023-03-01T04:53:06.127Z,22.43
2023-03-01T04:55:34.025Z,22.83
2023-03-01T04:58:01.891Z,22.60
2023-03-01T05:00:29.938Z,23.70
2023-03-01T05:03:00.258Z,20.93
2023-03-01T05:05:29.963Z,21.07
2023-03-01T05:08:01.007Z,23.60
2023-03-01T05:10:31.187Z,22.87
2023-03-01T05:12:59.684Z,22.27
2023-03-01T05:15:30.646Z,23.00
2023-03-01T05:18:00.978Z,21.27
2023-03-01T05:20:29.923Z,23.10
2023-03-01T05:23:00.739Z,22.60
2023-03-01T05:25:34.135Z,22.73
2023-03-01T05:28:05.705Z,23.33
2023-03-01T05:30:34.098Z,23.53
2023-03-01T05:33:02.066Z,24.43
2023-03-01T05:35:30.516Z,23.10
2023-03-01T05:37:59.876Z,23.53
2023-03-01T05:40:27.762Z,26.10
2023-03-01T05:42:57.828Z,26.00
2023-03-01T05:45:27.828Z,28.17
2023-03-01T05:47:56.508Z,27.93
2023-03-01T05:50:26.408Z,26.67
2023-03-01T05:52:58.965Z,24.50
2023-03-01T05:55:29.299Z,27.37
2023-03-01T05:57:57.586Z,23.00
2023-03-01T06:00:25.718Z,23.87
2023-03-01T06:02:53.737Z,23.50
2023-03-01T06:05:21.835Z,25.27
2023-03-01T06:07:50.990Z,25.73
2023-03-01T06:10:19.566Z,25.87
2023-03-01T06:12:48.930Z,24.27
2023-03-01T06:15:18.399Z,23.93
2023-03-01T06:17:47.500Z,25.10
2023-03-01T06:20:17.639Z,24.80
2023-03-01T06:22:46.428Z,25.07
2023-03-01T06:25:19.018Z,22.33
2023-03-01T06:27:49.717Z,23.10
2023-03-01T06:30:18.924Z,23.83
2023-03-01T06:32:47.159Z,24.97
2023-03-01T06:35:18.633Z,28.47
2023-03-01T06:37:47.500Z,35.03
2023-03-01T06:40:18.508Z,26.27
2023-03-01T06:42:52.613Z,25.03
2023-03-01T06:45:21.502Z,24.70
2023-03-01T06:47:49.947Z,24.10
2023-03-01T06:50:19.759Z,25.00
2023-03-01T06:52:50.725Z,22.67
2023-03-01T06:55:18.714Z,20.10
2023-03-01T06:57:47.260Z,20.43
2023-03-01T07:00:19.392Z,19.97
2023-03-01T07:02:47.293Z,19.30
2023-03-01T07:05:15.294Z,21.63
2023-03-01T07:07:43.144Z,21.67
2023-03-01T07:10:12.405Z,22.13
2023-03-01T07:12:40.383Z,22.27
2023-03-01T07:15:10.700Z,21.20
2023-03-01T07:17:39.955Z,20.80
2023-03-01T07:20:08.414Z,20.67
2023-03-01T07:22:36.287Z,21.53
2023-03-01T07:25:04.241Z,21.27
2023-03-01T07:27:32.128Z,22.10
2023-03-01T07:30:00.039Z,20.70
2023-03-01T07:32:28.131Z,21.63
2023-03-01T07:34:57.455Z,21.30
2023-03-01T07:37:25.310Z,21.33
2023-03-01T07:39:53.236Z,20.30
2023-03-01T07:42:21.075Z,21.27
2023-03-01T07:44:48.963Z,20.10
2023-03-01T07:47:16.852Z,20.80
2023-03-01T07:49:44.722Z,20.27
2023-03-01T07:52:14.229Z,21.70
2023-03-01T07:54:45.401Z,21.90
2023-03-01T07:57:13.642Z,22.57
2023-03-01T07:59:41.584Z,20.83
2023-03-01T08:02:10.649Z,20.07
2023-03-01T08:04:38.678Z,21.17
2023-03-01T08:07:07.652Z,23.07
2023-03-01T08:09:38.541Z,22.00
2023-03-01T08:12:08.631Z,20.73
2023-03-01T08:14:36.644Z,21.17
2023-03-01T08:17:04.997Z,21.37
2023-03-01T08:19:34.209Z,21.63
2023-03-01T08:22:02.083Z,21.73
2023-03-01T08:24:30.306Z,22.17
2023-03-01T08:26:59.651Z,22.50
2023-03-01T08:29:27.603Z,23.13
2023-03-01T08:31:55.679Z,22.97
2023-03-01T08:34:23.650Z,23.13
2023-03-01T08:36:53.243Z,22.07
2023-03-01T08:39:22.609Z,21.67
2023-03-01T08:41:50.627Z,20.97
2023-03-01T08:44:20.585Z,21.40
2023-03-01T08:46:51.016Z,21.23
2023-03-01T08:49:20.966Z,21.47
2023-03-01T08:51:49.849Z,21.43
2023-03-01T08:54:20.061Z,20.30
2023-03-01T08:56:48.536Z,20.87
2023-03-01T08:59:18.364Z,20.13
2023-03-01T09:01:47.638Z,20.47
2023-03-01T09:04:17.088Z,20.27
2023-03-01T09:06:45.412Z,19.47
2023-03-01T09:09:17.264Z,18.77
2023-03-01T09:11:47.071Z,20.57
2023-03-01T09:14:15.831Z,19.87
2023-03-01T09:16:44.139Z,21.07
2023-03-01T09:19:13.654Z,21.13
2023-03-01T09:21:41.883Z,20.10
2023-03-01T09:24:15.430Z,19.80
2023-03-01T09:26:43.614Z,18.53
2023-03-01T09:29:11.615Z,19.20
2023-03-01T09:31:40.186Z,17.90
2023-03-01T09:34:08.844Z,18.73
2023-03-01T09:36:38.701Z,19.87
2023-03-01T09:39:08.027Z,17.60
2023-03-01T09:41:47.098Z,18.63
2023-03-01T09:44:26.188Z,17.53
2023-03-01T09:46:54.369Z,17.40
2023-03-01T09:49:26.196Z,17.67
2023-03-01T09:52:02.940Z,18.67
2023-03-01T09:54:30.865Z,17.53
2023-03-01T09:57:16.175Z,17.77
2023-03-01T10:00:00.751Z,16.97
2023-03-01T10:02:35.740Z,17.17
2023-03-01T10:05:12.999Z,16.23
2023-03-01T10:07:47.618Z,16.47
2023-03-01T10:10:30.075Z,16.33
2023-03-01T10:12:58.630Z,16.40
2023-03-01T10:15:36.284Z,17.07
2023-03-01T10:18:08.821Z,17.30
2023-03-01T10:20:46.019Z,17.27
2023-03-01T10:23:15.313Z,17.00
2023-03-01T10:25:55.253Z,16.17
2023-03-01T10:28:30.529Z,16.80
2023-03-01T10:31:00.292Z,18.37
2023-03-01T10:33:31.382Z,16.17
2023-03-01T10:35:59.323Z,15.90
2023-03-01T10:38:32.042Z,16.10
2023-03-01T10:41:06.442Z,15.80
2023-03-01T10:43:45.715Z,16.17
2023-03-01T10:46:25.931Z,16.47
2023-03-01T10:49:09.955Z,15.47
2023-03-01T10:51:40.114Z,16.70
2023-03-01T10:54:19.529Z,17.27
2023-03-01T10:56:53.750Z,16.10
2023-03-01T10:59:29.303Z,16.30
2023-03-01T11:02:24.957Z,14.37
2023-03-01T11:05:02.271Z,15.30
2023-03-01T11:07:30.840Z,15.13
2023-03-01T11:10:00.142Z,15.37
2023-03-01T11:12:30.718Z,14.90
2023-03-01T11:14:59.480Z,15.93
2023-03-01T11:17:31.604Z,15.73
2023-03-01T11:20:17.671Z,15.13
2023-03-01T11:22:50.908Z,14.67
2023-03-01T11:25:24.100Z,15.27
2023-03-01T11:27:52.064Z,14.83
2023-03-01T11:30:24.472Z,17.37
2023-03-01T11:33:03.379Z,15.13
2023-03-01T11:35:34.286Z,16.23
2023-03-01T11:38:14.951Z,13.53
2023-03-01T11:40:54.304Z,14.13
2023-03-01T11:43:30.100Z,14.57
2023-03-01T11:46:24.088Z,14.33
2023-03-01T11:49:00.862Z,14.33
2023-03-01T11:51:44.104Z,14.30
2023-03-01T11:54:23.426Z,15.40
2023-03-01T11:56:58.026Z,15.93
2023-03-01T11:59:40.707Z,15.53
2023-03-01T12:02:50.888Z,16.27
2023-03-01T12:05:54.476Z,15.57
2023-03-01T12:08:29.971Z,16.23
2023-03-01T12:11:12.652Z,15.23
2023-03-01T12:14:00.902Z,17.17
2023-03-01T12:16:40.250Z,16.87
2023-03-01T12:19:23.616Z,16.70
2023-03-01T12:22:06.136Z,16.53
2023-03-01T12:24:50.040Z,16.27
2023-03-01T12:27:36.131Z,16.80
2023-03-01T12:30:19.011Z,17.07
2023-03-01T12:33:02.542Z,17.60
2023-03-01T12:35:52.417Z,18.30
2023-03-01T12:38:36.160Z,18.47
2023-03-01T12:41:27.627Z,17.03
2023-03-01T12:44:06.998Z,18.17
2023-03-01T12:50:43.569Z,17.77
2023-03-01T12:53:24.351Z,17.23
2023-03-01T12:55:54.005Z,18.00
2023-03-01T12:58:50.345Z,17.70
2023-03-01T13:01:28.711Z,18.20
2023-03-01T13:04:17.667Z,18.13
2023-03-01T13:07:03.260Z,18.10
2023-03-01T13:09:39.896Z,19.80
2023-03-01T13:12:41.187Z,18.17
2023-03-01T13:15:27.986Z,19.83
2023-03-01T13:18:00.104Z,20.67
2023-03-01T13:20:33.090Z,20.90
2023-03-01T13:23:14.942Z,20.90
2023-03-01T13:26:14.115Z,20.53
2023-03-01T13:28:53.955Z,21.40
2023-03-01T13:32:02.752Z,22.70
2023-03-01T13:34:54.122Z,20.53
2023-03-01T13:37:30.281Z,21.00
2023-03-01T13:42:56.251Z,22.00
2023-03-01T13:45:38.357Z,21.20
2023-03-01T13:48:13.030Z,20.40
2023-03-01T13:50:48.867Z,20.53
2023-03-01T13:53:20.655Z,20.70
2023-03-01T13:55:51.620Z,21.33
2023-03-01T13:58:26.276Z,21.97
2023-03-01T14:00:59.366Z,21.57
2023-03-01T14:03:27.512Z,20.87
2023-03-01T14:06:19.703Z,21.00
2023-03-01T14:08:51.308Z,20.67
2023-03-01T14:11:52.841Z,22.00
2023-03-01T14:14:37.121Z,23.40
2023-03-01T14:17:16.983Z,19.70
2023-03-01T14:19:47.620Z,20.27
2023-03-01T14:22:21.489Z,19.47
2023-03-01T14:24:51.993Z,20.53
2023-03-01T14:27:20.758Z,20.17
2023-03-01T14:29:59.313Z,20.20
2023-03-01T14:32:29.087Z,20.27
2023-03-01T14:34:58.341Z,19.70
2023-03-01T14:37:28.640Z,20.97
2023-03-01T14:39:57.951Z,20.93
2023-03-01T14:42:29.300Z,20.10
2023-03-01T14:45:00.126Z,20.03
2023-03-01T14:47:31.359Z,20.13
2023-03-01T14:50:01.897Z,18.73
2023-03-01T14:52:37.047Z,18.77
2023-03-01T14:55:07.276Z,17.80
2023-03-01T14:57:35.374Z,16.90
2023-03-01T15:00:08.572Z,17.67
2023-03-01T15:02:37.447Z,16.83
2023-03-01T15:05:08.883Z,16.93
2023-03-01T15:07:40.967Z,16.90
2023-03-01T15:10:19.706Z,17.00
2023-03-01T15:12:47.614Z,18.50
2023-03-01T15:15:38.706Z,16.77
2023-03-01T15:18:16.772Z,17.43
2023-03-01T15:20:45.169Z,17.53
2023-03-01T15:23:23.871Z,17.33
2023-03-01T15:25:58.432Z,16.47
2023-03-01T15:28:28.896Z,17.40
2023-03-01T15:31:02.290Z,17.07
2023-03-01T15:33:33.846Z,17.90
2023-03-01T15:36:02.571Z,18.10
2023-03-01T15:38:33.937Z,17.10
2023-03-01T15:41:03.618Z,18.83
2023-03-01T15:43:43.655Z,19.80
2023-03-01T15:46:33.420Z,20.20
2023-03-01T15:49:04.235Z,21.40
2023-03-01T15:51:35.824Z,18.30
2023-03-01T15:54:07.777Z,18.27
2023-03-01T15:56:36.311Z,18.47
2023-03-01T15:59:05.782Z,21.40
2023-03-01T16:01:36.378Z,18.00
2023-03-01T16:04:04.284Z,19.43
2023-03-01T16:06:32.684Z,17.93
2023-03-01T16:09:00.842Z,18.70
2023-03-01T16:11:29.053Z,19.90
2023-03-01T16:13:56.928Z,19.50
2023-03-01T16:16:25.522Z,22.17
2023-03-01T16:18:55.900Z,18.77
2023-03-01T16:21:27.856Z,24.57
2023-03-01T16:23:55.709Z,23.63
2023-03-01T16:26:23.541Z,22.70
2023-03-01T16:28:51.415Z,24.33
2023-03-01T16:31:21.350Z,22.27
2023-03-01T16:33:50.953Z,22.90
2023-03-01T16:36:24.501Z,33.70
2023-03-01T16:38:53.613Z,24.73
2023-03-01T16:41:23.282Z,24.33
2023-03-01T16:43:52.330Z,21.50
2023-03-01T16:46:22.110Z,21.10
2023-03-01T16:48:50.975Z,27.73
2023-03-01T16:51:21.259Z,22.57
2023-03-01T16:53:49.678Z,21.30
2023-03-01T16:56:18.416Z,21.97
2023-03-01T16:58:46.381Z,21.40
2023-03-01T17:01:16.746Z,21.27
2023-03-01T17:03:45.922Z,22.60
2023-03-01T17:06:18.311Z,26.37
2023-03-01T17:08:47.810Z,27.90
2023-03-01T17:11:17.364Z,21.77
2023-03-01T17:13:45.385Z,21.63
2023-03-01T17:16:15.421Z,20.03
2023-03-01T17:18:43.550Z,22.83
2023-03-01T17:21:12.013Z,48.77
2023-03-01T17:23:42.134Z,24.57
2023-03-01T17:26:11.703Z,22.10
2023-03-01T17:28:40.158Z,20.70
2023-03-01T17:31:08.777Z,21.57
2023-03-01T17:33:37.127Z,22.83
2023-03-01T17:36:05.444Z,23.23
2023-03-01T17:38:33.404Z,23.37
2023-03-01T17:41:01.906Z,33.53
2023-03-01T17:43:34.425Z,44.23
2023-03-01T17:46:02.575Z,47.83
2023-03-01T17:48:30.493Z,33.27
2023-03-01T17:50:58.777Z,24.57
2023-03-01T17:53:26.651Z,24.20
2023-03-01T17:56:01.358Z,22.97
2023-03-01T17:58:29.579Z,24.03
2023-03-01T18:01:08.670Z,21.63
2023-03-01T18:03:36.554Z,21.43
2023-03-01T18:06:04.654Z,22.67
2023-03-01T18:08:32.585Z,20.47
2023-03-01T18:11:00.777Z,20.97
2023-03-01T18:13:28.644Z,23.27
2023-03-01T18:16:00.905Z,22.33
2023-03-01T18:18:28.895Z,21.20
2023-03-01T18:20:57.576Z,23.70
2023-03-01T18:23:25.529Z,25.90
2023-03-01T18:25:56.062Z,26.90
2023-03-01T18:28:25.657Z,25.87
2023-03-01T18:30:58.721Z,37.00
2023-03-01T18:33:27.334Z,91.73
2023-03-01T18:35:55.278Z,31.30
2023-03-01T18:38:24.877Z,29.00
2023-03-01T18:40:52.914Z,23.83
2023-03-01T18:43:21.922Z,22.87
2023-03-01T18:45:49.998Z,22.73
2023-03-01T18:48:19.406Z,22.93
2023-03-01T18:50:47.241Z,22.30
2023-03-01T18:53:15.061Z,22.93
2023-03-01T18:55:42.961Z,22.60
2023-03-01T18:58:11.651Z,22.00
2023-03-01T19:00:39.463Z,20.97
2023-03-01T19:03:07.432Z,22.53
2023-03-01T19:05:36.651Z,21.40
2023-03-01T19:08:04.779Z,23.93
2023-03-01T19:10:32.651Z,21.70
2023-03-01T19:13:00.479Z,23.40
2023-03-01T19:15:28.456Z,22.83
2023-03-01T19:17:57.339Z,22.30
2023-03-01T19:20:25.293Z,23.03
2023-03-01T19:22:54.532Z,21.13
2023-03-01T19:25:22.471Z,22.37
2023-03-01T19:27:50.372Z,22.90
2023-03-01T19:30:18.647Z,22.73
2023-03-01T19:32:46.755Z,22.50
2023-03-01T19:35:14.625Z,19.57
2023-03-01T19:37:42.515Z,22.20
2023-03-01T19:40:13.105Z,20.67
2023-03-01T19:42:41.032Z,21.70
2023-03-01T19:45:10.084Z,24.10
2023-03-01T19:47:37.950Z,22.37
2023-03-01T19:50:06.407Z,22.57
2023-03-01T19:52:34.446Z,22.87
2023-03-01T19:55:09.349Z,22.17
2023-03-01T19:57:39.159Z,22.27
2023-03-01T20:00:08.448Z,22.37
2023-03-01T20:02:36.613Z,21.37
2023-03-01T20:05:04.691Z,22.93
2023-03-01T20:07:32.647Z,22.30
2023-03-01T20:10:00.558Z,21.63
2023-03-01T20:12:28.484Z,22.27
2023-03-01T20:14:58.779Z,20.43
2023-03-01T20:17:26.684Z,23.63
2023-03-01T20:19:54.614Z,20.60
2023-03-01T20:22:22.526Z,22.30
2023-03-01T20:24:50.377Z,22.37
2023-03-01T20:27:18.424Z,25.30
2023-03-01T20:29:46.970Z,21.13
2023-03-01T20:32:16.249Z,21.00
2023-03-01T20:34:44.131Z,20.63
2023-03-01T20:37:12.078Z,22.37
2023-03-01T20:39:39.950Z,24.43
2023-03-01T20:42:08.551Z,21.30
2023-03-01T20:44:43.040Z,22.63
2023-03-01T20:47:10.951Z,19.70
2023-03-01T20:49:40.421Z,20.77
2023-03-01T20:52:08.418Z,23.07
2023-03-01T20:54:37.285Z,24.40
2023-03-01T20:57:05.286Z,36.40
2023-03-01T20:59:34.944Z,59.67
2023-03-01T21:02:02.830Z,62.00
2023-03-01T21:04:30.686Z,33.57
2023-03-01T21:06:59.922Z,25.53
2023-03-01T21:09:27.947Z,23.80
2023-03-01T21:11:55.807Z,22.17
2023-03-01T21:14:23.730Z,22.83
2023-03-01T21:16:51.723Z,23.30
2023-03-01T21:19:22.482Z,22.30
2023-03-01T21:21:51.427Z,23.67
2023-03-01T21:24:20.786Z,23.40
2023-03-01T21:26:48.626Z,22.23
2023-03-01T21:29:16.514Z,22.67
2023-03-01T21:31:44.439Z,21.97
2023-03-01T21:34:14.195Z,21.07
2023-03-01T21:36:42.150Z,27.13
2023-03-01T21:39:11.808Z,25.70
2023-03-01T21:41:41.099Z,23.97
2023-03-01T21:44:09.393Z,35.80
2023-03-01T21:46:39.664Z,44.17
2023-03-01T21:49:08.827Z,33.50
2023-03-01T21:51:37.379Z,64.10
2023-03-01T21:54:05.685Z,49.27
2023-03-01T21:56:38.649Z,67.63
2023-03-01T21:59:09.095Z,57.00
2023-03-01T22:01:36.982Z,39.30
2023-03-01T22:04:05.003Z,40.03
2023-03-01T22:06:38.261Z,26.10
2023-03-01T22:09:08.820Z,30.17
2023-03-01T22:11:39.558Z,30.53
2023-03-01T22:14:09.285Z,29.73
2023-03-01T22:16:39.738Z,43.30
2023-03-01T22:19:08.239Z,46.97
2023-03-01T22:21:36.498Z,42.30
2023-03-01T22:24:04.505Z,61.47
2023-03-01T22:26:35.640Z,38.60
2023-03-01T22:29:06.387Z,52.63
2023-03-01T22:31:35.943Z,48.43
2023-03-01T22:34:04.265Z,32.50
2023-03-01T22:36:32.794Z,27.37
2023-03-01T22:39:01.939Z,26.83
2023-03-01T22:41:30.946Z,22.30
2023-03-01T22:43:58.868Z,21.37
2023-03-01T22:46:28.342Z,22.03
2023-03-01T22:48:58.064Z,25.03
2023-03-01T22:51:29.229Z,22.67
2023-03-01T22:53:58.244Z,24.57
2023-03-01T22:56:28.921Z,18.73
2023-03-01T22:58:58.284Z,22.00
2023-03-01T23:01:27.377Z,20.93
2023-03-01T23:03:55.446Z,22.10
2023-03-01T23:06:25.565Z,21.13
2023-03-01T23:08:54.977Z,22.57
2023-03-01T23:11:24.399Z,19.73
2023-03-01T23:13:54.124Z,23.03
2023-03-01T23:16:25.994Z,20.27
2023-03-01T23:18:54.336Z,21.00
2023-03-01T23:21:22.787Z,21.90
2023-03-01T23:23:52.343Z,21.67
2023-03-01T23:26:22.331Z,22.67
2023-03-01T23:28:51.955Z,18.03
2023-03-01T23:31:20.818Z,19.13
2023-03-01T23:33:49.009Z,20.43
2023-03-01T23:36:19.427Z,20.60
2023-03-01T23:38:48.350Z,16.93
2023-03-01T23:41:19.263Z,19.97
2023-03-01T23:43:47.676Z,20.00
2023-03-01T23:46:16.556Z,20.43
2023-03-01T23:48:45.469Z,20.40
2023-03-01T23:51:14.157Z,21.73
2023-03-01T23:53:54.764Z,19.73
2023-03-01T23:56:26.863Z,20.23
2023-03-01T23:58:55.992Z,21.87
